sensor_id;sensor_type;location;lat;lon;timestamp;temperature;humidity
6462;DHT22;3264;42.862;25.098;2023-11-22T00:01:35;9.30;99.90
6462;DHT22;3264;42.862;25.098;2023-11-22T00:04:06;9.20;99.90
6462;DHT22;3264;42.862;25.098;2023-11-22T00:06:36;9.20;99.90
6462;DHT22;3264;42.862;25.098;2023-11-22T00:09:25;9.10;99.90
6462;DHT22;3264;42.862;25.098;2023-11-22T00:11:54;9.20;99.90
6462;DHT22;3264;42.862;25.098;2023-11-22T00:14:22;9.00;99.90
6462;DHT22;3264;42.862;25.098;2023-11-22T00:16:50;9.00;99.90
6462;DHT22;3264;42.862;25.098;2023-11-22T00:19:26;9.00;99.90
6462;DHT22;3264;42.862;25.098;2023-11-22T00:22:05;9.00;99.90
6462;DHT22;3264;42.862;25.098;2023-11-22T00:24:41;9.00;99.90
6462;DHT22;3264;42.862;25.098;2023-11-22T00:27:15;9.00;99.90
6462;DHT22;3264;42.862;25.098;2023-11-22T00:29:46;9.00;99.90
6462;DHT22;3264;42.862;25.098;2023-11-22T00:32:16;9.00;99.90
6462;DHT22;3264;42.862;25.098;2023-11-22T00:34:52;8.90;99.90
6462;DHT22;3264;42.862;25.098;2023-11-22T00:37:26;8.80;99.90
6462;DHT22;3264;42.862;25.098;2023-11-22T00:39:58;8.80;99.90
6462;DHT22;3264;42.862;25.098;2023-11-22T00:42:34;8.90;99.90
6462;DHT22;3264;42.862;25.098;2023-11-22T00:45:09;8.90;99.90
6462;DHT22;3264;42.862;25.098;2023-11-22T00:47:37;8.90;99.90
6462;DHT22;3264;42.862;25.098;2023-11-22T00:50:08;8.90;99.90
6462;DHT22;3264;42.862;25.098;2023-11-22T00:52:41;8.90;99.90
6462;DHT22;3264;42.862;25.098;2023-11-22T00:55:13;8.80;99.90
6462;DHT22;3264;42.862;25.098;2023-11-22T00:57:40;8.80;99.90
6462;DHT22;3264;42.862;25.098;2023-11-22T01:00:09;8.80;99.90
6462;DHT22;3264;42.862;25.098;2023-11-22T01:02:40;8.90;99.90
6462;DHT22;3264;42.862;25.098;2023-11-22T01:05:09;8.90;99.90
6462;DHT22;3264;42.862;25.098;2023-11-22T01:07:39;8.90;99.90
6462;DHT22;3264;42.862;25.098;2023-11-22T01:10:09;8.90;99.90
6462;DHT22;3264;42.862;25.098;2023-11-22T01:12:49;9.00;99.90
6462;DHT22;3264;42.862;25.098;2023-11-22T01:15:23;9.10;99.90
6462;DHT22;3264;42.862;25.098;2023-11-22T01:17:53;9.00;99.90
6462;DHT22;3264;42.862;25.098;2023-11-22T01:20:21;9.10;99.90
6462;DHT22;3264;42.862;25.098;2023-11-22T01:22:51;9.10;99.90
6462;DHT22;3264;42.862;25.098;2023-11-22T01:25:22;9.10;99.90
6462;DHT22;3264;42.862;25.098;2023-11-22T01:27:53;9.10;99.90
6462;DHT22;3264;42.862;25.098;2023-11-22T01:30:28;9.10;99.90
6462;DHT22;3264;42.862;25.098;2023-11-22T01:32:57;9.10;99.90
6462;DHT22;3264;42.862;25.098;2023-11-22T01:35:28;9.10;99.90
6462;DHT22;3264;42.862;25.098;2023-11-22T01:37:55;9.10;99.90
6462;DHT22;3264;42.862;25.098;2023-11-22T01:40:43;9.10;99.90
6462;DHT22;3264;42.862;25.098;2023-11-22T01:43:16;9.20;99.90
6462;DHT22;3264;42.862;25.098;2023-11-22T01:45:44;9.10;99.90
6462;DHT22;3264;42.862;25.098;2023-11-22T01:48:17;9.00;99.90
6462;DHT22;3264;42.862;25.098;2023-11-22T01:50:49;9.00;99.90
6462;DHT22;3264;42.862;25.098;2023-11-22T01:53:17;9.10;99.90
6462;DHT22;3264;42.862;25.098;2023-11-22T01:55:50;9.10;99.90
6462;DHT22;3264;42.862;25.098;2023-11-22T01:58:43;9.10;99.90
6462;DHT22;3264;42.862;25.098;2023-11-22T02:01:14;9.10;99.90
6462;DHT22;3264;42.862;25.098;2023-11-22T02:03:42;9.20;99.90
6462;DHT22;3264;42.862;25.098;2023-11-22T02:06:15;9.20;99.90
6462;DHT22;3264;42.862;25.098;2023-11-22T02:08:43;9.20;99.90
6462;DHT22;3264;42.862;25.098;2023-11-22T02:11:11;9.20;99.90
6462;DHT22;3264;42.862;25.098;2023-11-22T02:13:38;9.20;99.90
6462;DHT22;3264;42.862;25.098;2023-11-22T02:16:22;9.10;99.90
6462;DHT22;3264;42.862;25.098;2023-11-22T02:18:50;9.10;99.90
6462;DHT22;3264;42.862;25.098;2023-11-22T02:21:18;9.10;99.90
6462;DHT22;3264;42.862;25.098;2023-11-22T02:23:50;9.10;99.90
6462;DHT22;3264;42.862;25.098;2023-11-22T02:26:20;9.20;99.90
6462;DHT22;3264;42.862;25.098;2023-11-22T02:28:53;9.20;99.90
6462;DHT22;3264;42.862;25.098;2023-11-22T02:31:23;9.20;99.90
6462;DHT22;3264;42.862;25.098;2023-11-22T02:33:50;9.20;99.90
6462;DHT22;3264;42.862;25.098;2023-11-22T02:36:36;9.20;99.90
6462;DHT22;3264;42.862;25.098;2023-11-22T02:39:06;9.30;99.90
6462;DHT22;3264;42.862;25.098;2023-11-22T02:41:37;9.30;99.90
6462;DHT22;3264;42.862;25.098;2023-11-22T02:44:06;9.30;99.90
6462;DHT22;3264;42.862;25.098;2023-11-22T02:46:33;9.30;99.90
6462;DHT22;3264;42.862;25.098;2023-11-22T02:49:01;9.20;99.90
6462;DHT22;3264;42.862;25.098;2023-11-22T02:51:34;9.10;99.90
6462;DHT22;3264;42.862;25.098;2023-11-22T02:54:14;9.10;99.90
6462;DHT22;3264;42.862;25.098;2023-11-22T02:56:49;9.10;99.90
6462;DHT22;3264;42.862;25.098;2023-11-22T02:59:19;9.10;99.90
6462;DHT22;3264;42.862;25.098;2023-11-22T03:01:53;9.10;99.90
6462;DHT22;3264;42.862;25.098;2023-11-22T03:04:26;9.10;99.90
6462;DHT22;3264;42.862;25.098;2023-11-22T03:06:54;9.10;99.90
6462;DHT22;3264;42.862;25.098;2023-11-22T03:09:33;9.00;99.90
6462;DHT22;3264;42.862;25.098;2023-11-22T03:12:02;9.10;99.90
6462;DHT22;3264;42.862;25.098;2023-11-22T03:14:32;9.00;99.90
6462;DHT22;3264;42.862;25.098;2023-11-22T03:17:07;9.00;99.90
6462;DHT22;3264;42.862;25.098;2023-11-22T03:19:35;9.10;99.90
6462;DHT22;3264;42.862;25.098;2023-11-22T03:22:03;9.00;99.90
6462;DHT22;3264;42.862;25.098;2023-11-22T03:24:42;9.00;99.90
6462;DHT22;3264;42.862;25.098;2023-11-22T03:27:20;9.10;99.90
6462;DHT22;3264;42.862;25.098;2023-11-22T03:29:54;9.10;99.90
6462;DHT22;3264;42.862;25.098;2023-11-22T03:32:24;9.10;99.90
6462;DHT22;3264;42.862;25.098;2023-11-22T03:34:56;9.10;99.90
6462;DHT22;3264;42.862;25.098;2023-11-22T03:37:29;9.00;99.90
6462;DHT22;3264;42.862;25.098;2023-11-22T03:40:06;9.10;99.90
6462;DHT22;3264;42.862;25.098;2023-11-22T03:42:44;9.10;99.90
6462;DHT22;3264;42.862;25.098;2023-11-22T03:45:15;9.00;99.90
6462;DHT22;3264;42.862;25.098;2023-11-22T03:47:48;9.00;99.90
6462;DHT22;3264;42.862;25.098;2023-11-22T03:50:19;9.00;99.90
6462;DHT22;3264;42.862;25.098;2023-11-22T03:52:47;9.10;99.90
6462;DHT22;3264;42.862;25.098;2023-11-22T03:55:16;9.10;99.90
6462;DHT22;3264;42.862;25.098;2023-11-22T03:57:45;9.10;99.90
6462;DHT22;3264;42.862;25.098;2023-11-22T04:00:15;9.00;99.90
6462;DHT22;3264;42.862;25.098;2023-11-22T04:02:44;9.00;99.90
6462;DHT22;3264;42.862;25.098;2023-11-22T04:05:24;9.00;99.90
6462;DHT22;3264;42.862;25.098;2023-11-22T04:07:53;9.00;99.90
6462;DHT22;3264;42.862;25.098;2023-11-22T04:10:25;9.10;99.90
6462;DHT22;3264;42.862;25.098;2023-11-22T04:12:52;9.00;99.90
6462;DHT22;3264;42.862;25.098;2023-11-22T04:15:25;9.00;99.90
6462;DHT22;3264;42.862;25.098;2023-11-22T04:17:53;9.00;99.90
6462;DHT22;3264;42.862;25.098;2023-11-22T04:20:21;9.00;99.90
6462;DHT22;3264;42.862;25.098;2023-11-22T04:22:59;9.10;99.90
6462;DHT22;3264;42.862;25.098;2023-11-22T04:25:28;9.10;99.90
6462;DHT22;3264;42.862;25.098;2023-11-22T04:27:56;9.10;99.90
6462;DHT22;3264;42.862;25.098;2023-11-22T04:30:26;9.10;99.90
6462;DHT22;3264;42.862;25.098;2023-11-22T04:32:55;9.00;99.90
6462;DHT22;3264;42.862;25.098;2023-11-22T04:35:22;9.10;99.90
6462;DHT22;3264;42.862;25.098;2023-11-22T04:37:50;9.10;99.90
6462;DHT22;3264;42.862;25.098;2023-11-22T04:40:19;9.10;99.90
6462;DHT22;3264;42.862;25.098;2023-11-22T04:42:48;9.10;99.90
6462;DHT22;3264;42.862;25.098;2023-11-22T04:45:16;9.00;99.90
6462;DHT22;3264;42.862;25.098;2023-11-22T04:47:44;9.00;99.90
6462;DHT22;3264;42.862;25.098;2023-11-22T04:50:12;9.00;99.90
6462;DHT22;3264;42.862;25.098;2023-11-22T04:52:40;8.90;99.90
6462;DHT22;3264;42.862;25.098;2023-11-22T04:55:09;8.90;99.90
6462;DHT22;3264;42.862;25.098;2023-11-22T04:57:38;8.90;99.90
6462;DHT22;3264;42.862;25.098;2023-11-22T05:00:09;9.00;99.90
6462;DHT22;3264;42.862;25.098;2023-11-22T05:02:37;8.90;99.90
6462;DHT22;3264;42.862;25.098;2023-11-22T05:05:07;8.90;99.90
6462;DHT22;3264;42.862;25.098;2023-11-22T05:07:37;9.00;99.90
6462;DHT22;3264;42.862;25.098;2023-11-22T05:10:06;9.00;99.90
6462;DHT22;3264;42.862;25.098;2023-11-22T05:12:36;9.00;99.90
6462;DHT22;3264;42.862;25.098;2023-11-22T05:15:07;9.00;99.90
6462;DHT22;3264;42.862;25.098;2023-11-22T05:17:35;9.10;99.90
6462;DHT22;3264;42.862;25.098;2023-11-22T05:20:04;9.00;99.90
6462;DHT22;3264;42.862;25.098;2023-11-22T05:22:36;9.00;99.90
6462;DHT22;3264;42.862;25.098;2023-11-22T05:25:05;8.90;99.90
6462;DHT22;3264;42.862;25.098;2023-11-22T05:27:34;8.80;99.90
6462;DHT22;3264;42.862;25.098;2023-11-22T05:30:03;8.80;99.90
6462;DHT22;3264;42.862;25.098;2023-11-22T05:32:34;8.80;99.90
6462;DHT22;3264;42.862;25.098;2023-11-22T05:35:01;8.90;99.90
6462;DHT22;3264;42.862;25.098;2023-11-22T05:37:32;8.90;99.90
6462;DHT22;3264;42.862;25.098;2023-11-22T05:40:00;8.90;99.90
6462;DHT22;3264;42.862;25.098;2023-11-22T05:42:29;8.90;99.90
6462;DHT22;3264;42.862;25.098;2023-11-22T05:44:58;8.90;99.90
6462;DHT22;3264;42.862;25.098;2023-11-22T05:47:26;8.90;99.90
6462;DHT22;3264;42.862;25.098;2023-11-22T05:49:55;8.90;99.90
6462;DHT22;3264;42.862;25.098;2023-11-22T05:52:23;8.90;99.90
6462;DHT22;3264;42.862;25.098;2023-11-22T05:54:51;9.00;99.90
6462;DHT22;3264;42.862;25.098;2023-11-22T05:57:20;9.00;99.90
6462;DHT22;3264;42.862;25.098;2023-11-22T05:59:48;9.00;99.90
6462;DHT22;3264;42.862;25.098;2023-11-22T06:02:16;8.90;99.90
6462;DHT22;3264;42.862;25.098;2023-11-22T06:04:43;8.90;99.90
6462;DHT22;3264;42.862;25.098;2023-11-22T06:07:14;8.90;99.90
6462;DHT22;3264;42.862;25.098;2023-11-22T06:09:43;9.00;99.90
6462;DHT22;3264;42.862;25.098;2023-11-22T06:12:10;9.10;99.90
6462;DHT22;3264;42.862;25.098;2023-11-22T06:14:39;9.20;99.90
6462;DHT22;3264;42.862;25.098;2023-11-22T06:17:07;9.20;99.90
6462;DHT22;3264;42.862;25.098;2023-11-22T06:19:35;9.10;99.90
6462;DHT22;3264;42.862;25.098;2023-11-22T06:22:04;9.10;99.90
6462;DHT22;3264;42.862;25.098;2023-11-22T06:24:35;9.10;99.90
6462;DHT22;3264;42.862;25.098;2023-11-22T06:27:03;9.10;99.90
6462;DHT22;3264;42.862;25.098;2023-11-22T06:29:32;9.20;99.90
6462;DHT22;3264;42.862;25.098;2023-11-22T06:32:00;9.30;99.90
6462;DHT22;3264;42.862;25.098;2023-11-22T06:34:28;9.40;99.90
6462;DHT22;3264;42.862;25.098;2023-11-22T06:36:56;9.40;99.90
6462;DHT22;3264;42.862;25.098;2023-11-22T06:39:25;9.40;99.90
6462;DHT22;3264;42.862;25.098;2023-11-22T06:41:55;9.50;99.90
6462;DHT22;3264;42.862;25.098;2023-11-22T06:44:23;9.60;99.90
6462;DHT22;3264;42.862;25.098;2023-11-22T06:46:52;9.60;99.90
6462;DHT22;3264;42.862;25.098;2023-11-22T06:49:21;9.60;99.90
6462;DHT22;3264;42.862;25.098;2023-11-22T06:51:49;9.60;99.90
6462;DHT22;3264;42.862;25.098;2023-11-22T06:54:19;9.60;99.90
6462;DHT22;3264;42.862;25.098;2023-11-22T06:56:48;9.60;99.90
6462;DHT22;3264;42.862;25.098;2023-11-22T06:59:18;9.50;99.90
6462;DHT22;3264;42.862;25.098;2023-11-22T07:01:46;9.60;99.90
6462;DHT22;3264;42.862;25.098;2023-11-22T07:04:14;9.60;99.90
6462;DHT22;3264;42.862;25.098;2023-11-22T07:06:42;9.60;99.90
6462;DHT22;3264;42.862;25.098;2023-11-22T07:09:11;9.70;99.90
6462;DHT22;3264;42.862;25.098;2023-11-22T07:11:41;9.70;99.90
6462;DHT22;3264;42.862;25.098;2023-11-22T07:14:11;9.80;99.90
6462;DHT22;3264;42.862;25.098;2023-11-22T07:16:42;9.80;99.90
6462;DHT22;3264;42.862;25.098;2023-11-22T07:19:10;9.90;99.90
6462;DHT22;3264;42.862;25.098;2023-11-22T07:21:38;9.80;99.90
6462;DHT22;3264;42.862;25.098;2023-11-22T07:24:07;9.90;99.90
6462;DHT22;3264;42.862;25.098;2023-11-22T07:26:36;9.80;99.90
6462;DHT22;3264;42.862;25.098;2023-11-22T07:29:05;9.80;99.90
6462;DHT22;3264;42.862;25.098;2023-11-22T07:31:34;9.80;99.90
6462;DHT22;3264;42.862;25.098;2023-11-22T07:34:05;9.90;99.90
6462;DHT22;3264;42.862;25.098;2023-11-22T07:36:34;10.00;99.90
6462;DHT22;3264;42.862;25.098;2023-11-22T07:39:05;9.90;99.90
6462;DHT22;3264;42.862;25.098;2023-11-22T07:41:34;9.90;99.90
6462;DHT22;3264;42.862;25.098;2023-11-22T07:44:04;9.90;99.90
6462;DHT22;3264;42.862;25.098;2023-11-22T07:46:32;9.90;99.90
6462;DHT22;3264;42.862;25.098;2023-11-22T07:49:00;9.90;99.90
6462;DHT22;3264;42.862;25.098;2023-11-22T07:51:30;9.90;99.90
6462;DHT22;3264;42.862;25.098;2023-11-22T07:53:59;9.90;99.90
6462;DHT22;3264;42.862;25.098;2023-11-22T07:56:27;9.90;99.90
6462;DHT22;3264;42.862;25.098;2023-11-22T07:58:56;10.00;99.90
6462;DHT22;3264;42.862;25.098;2023-11-22T08:01:24;10.00;99.90
6462;DHT22;3264;42.862;25.098;2023-11-22T08:03:55;10.10;99.90
6462;DHT22;3264;42.862;25.098;2023-11-22T08:06:24;10.10;99.90
6462;DHT22;3264;42.862;25.098;2023-11-22T08:08:55;10.10;99.90
6462;DHT22;3264;42.862;25.098;2023-11-22T08:11:27;10.20;99.90
6462;DHT22;3264;42.862;25.098;2023-11-22T08:13:56;10.30;99.90
6462;DHT22;3264;42.862;25.098;2023-11-22T08:16:26;10.30;99.90
6462;DHT22;3264;42.862;25.098;2023-11-22T08:18:55;10.20;99.90
6462;DHT22;3264;42.862;25.098;2023-11-22T08:21:23;10.30;99.90
6462;DHT22;3264;42.862;25.098;2023-11-22T08:23:51;10.40;99.90
6462;DHT22;3264;42.862;25.098;2023-11-22T08:26:21;10.50;99.90
6462;DHT22;3264;42.862;25.098;2023-11-22T08:28:53;10.60;99.90
6462;DHT22;3264;42.862;25.098;2023-11-22T08:31:22;10.70;99.90
6462;DHT22;3264;42.862;25.098;2023-11-22T08:33:50;10.70;99.90
6462;DHT22;3264;42.862;25.098;2023-11-22T08:36:19;10.70;99.90
6462;DHT22;3264;42.862;25.098;2023-11-22T08:38:47;10.70;99.90
6462;DHT22;3264;42.862;25.098;2023-11-22T08:41:16;10.70;99.90
6462;DHT22;3264;42.862;25.098;2023-11-22T08:43:46;10.80;99.90
6462;DHT22;3264;42.862;25.098;2023-11-22T08:46:15;10.90;99.90
6462;DHT22;3264;42.862;25.098;2023-11-22T08:48:43;10.70;99.90
6462;DHT22;3264;42.862;25.098;2023-11-22T08:51:12;10.70;99.90
6462;DHT22;3264;42.862;25.098;2023-11-22T08:53:42;10.70;99.90
6462;DHT22;3264;42.862;25.098;2023-11-22T08:56:16;10.80;99.90
6462;DHT22;3264;42.862;25.098;2023-11-22T08:58:46;10.90;99.90
6462;DHT22;3264;42.862;25.098;2023-11-22T09:01:15;11.00;99.90
6462;DHT22;3264;42.862;25.098;2023-11-22T09:03:45;11.00;99.90
6462;DHT22;3264;42.862;25.098;2023-11-22T09:06:14;11.00;99.90
6462;DHT22;3264;42.862;25.098;2023-11-22T09:08:43;11.10;99.90
6462;DHT22;3264;42.862;25.098;2023-11-22T09:11:13;11.20;99.90
6462;DHT22;3264;42.862;25.098;2023-11-22T09:13:42;11.30;99.90
6462;DHT22;3264;42.862;25.098;2023-11-22T09:16:13;11.20;99.90
6462;DHT22;3264;42.862;25.098;2023-11-22T09:18:43;11.20;99.90
6462;DHT22;3264;42.862;25.098;2023-11-22T09:21:12;11.20;99.90
6462;DHT22;3264;42.862;25.098;2023-11-22T09:23:42;11.20;99.90
6462;DHT22;3264;42.862;25.098;2023-11-22T09:26:10;11.30;99.90
6462;DHT22;3264;42.862;25.098;2023-11-22T09:28:39;11.30;99.90
6462;DHT22;3264;42.862;25.098;2023-11-22T09:31:08;11.40;99.90
6462;DHT22;3264;42.862;25.098;2023-11-22T09:33:41;11.40;99.90
6462;DHT22;3264;42.862;25.098;2023-11-22T09:36:10;11.40;99.90
6462;DHT22;3264;42.862;25.098;2023-11-22T09:38:39;11.50;99.90
6462;DHT22;3264;42.862;25.098;2023-11-22T09:41:09;11.50;99.90
6462;DHT22;3264;42.862;25.098;2023-11-22T09:43:38;11.30;99.90
6462;DHT22;3264;42.862;25.098;2023-11-22T09:46:08;11.30;99.90
6462;DHT22;3264;42.862;25.098;2023-11-22T09:48:41;11.30;99.90
6462;DHT22;3264;42.862;25.098;2023-11-22T09:51:20;11.30;99.90
6462;DHT22;3264;42.862;25.098;2023-11-22T09:53:55;11.30;99.90
6462;DHT22;3264;42.862;25.098;2023-11-22T09:56:25;11.30;99.90
6462;DHT22;3264;42.862;25.098;2023-11-22T09:58:55;11.30;99.90
6462;DHT22;3264;42.862;25.098;2023-11-22T10:01:27;11.30;99.90
6462;DHT22;3264;42.862;25.098;2023-11-22T10:03:59;11.30;99.90
6462;DHT22;3264;42.862;25.098;2023-11-22T10:06:27;11.30;99.90
6462;DHT22;3264;42.862;25.098;2023-11-22T10:09:06;11.40;99.90
6462;DHT22;3264;42.862;25.098;2023-11-22T10:11:35;11.30;99.90
6462;DHT22;3264;42.862;25.098;2023-11-22T10:14:07;11.10;99.90
6462;DHT22;3264;42.862;25.098;2023-11-22T10:16:37;11.10;99.90
6462;DHT22;3264;42.862;25.098;2023-11-22T10:19:06;11.20;99.90
6462;DHT22;3264;42.862;25.098;2023-11-22T10:24:47;11.20;99.90
6462;DHT22;3264;42.862;25.098;2023-11-22T10:28:01;11.20;99.90
6462;DHT22;3264;42.862;25.098;2023-11-22T10:30:47;11.30;99.90
6462;DHT22;3264;42.862;25.098;2023-11-22T10:33:16;11.40;99.90
6462;DHT22;3264;42.862;25.098;2023-11-22T10:35:48;11.40;99.90
6462;DHT22;3264;42.862;25.098;2023-11-22T10:38:18;11.40;99.90
6462;DHT22;3264;42.862;25.098;2023-11-22T10:40:47;11.40;99.90
6462;DHT22;3264;42.862;25.098;2023-11-22T10:43:20;11.50;99.90
6462;DHT22;3264;42.862;25.098;2023-11-22T10:45:54;11.50;99.90
6462;DHT22;3264;42.862;25.098;2023-11-22T10:48:22;11.50;99.90
6462;DHT22;3264;42.862;25.098;2023-11-22T10:50:53;11.50;99.90
6462;DHT22;3264;42.862;25.098;2023-11-22T10:53:30;11.50;99.90
6462;DHT22;3264;42.862;25.098;2023-11-22T10:56:05;11.50;99.90
6462;DHT22;3264;42.862;25.098;2023-11-22T10:58:49;11.50;99.90
6462;DHT22;3264;42.862;25.098;2023-11-22T11:01:18;11.40;99.90
6462;DHT22;3264;42.862;25.098;2023-11-22T11:03:55;11.50;99.90
6462;DHT22;3264;42.862;25.098;2023-11-22T11:06:29;11.50;99.90
6462;DHT22;3264;42.862;25.098;2023-11-22T11:09:01;11.50;99.90
6462;DHT22;3264;42.862;25.098;2023-11-22T11:11:33;11.50;99.90
6462;DHT22;3264;42.862;25.098;2023-11-22T11:14:03;11.50;99.90
6462;DHT22;3264;42.862;25.098;2023-11-22T11:16:37;11.50;99.90
6462;DHT22;3264;42.862;25.098;2023-11-22T11:19:09;11.50;99.90
6462;DHT22;3264;42.862;25.098;2023-11-22T11:21:40;11.40;99.90
6462;DHT22;3264;42.862;25.098;2023-11-22T11:24:09;11.50;99.90
6462;DHT22;3264;42.862;25.098;2023-11-22T11:26:38;11.60;99.90
6462;DHT22;3264;42.862;25.098;2023-11-22T11:29:06;11.50;99.90
6462;DHT22;3264;42.862;25.098;2023-11-22T11:31:38;11.50;99.90
6462;DHT22;3264;42.862;25.098;2023-11-22T11:34:06;11.50;99.90
6462;DHT22;3264;42.862;25.098;2023-11-22T11:36:38;11.30;99.90
6462;DHT22;3264;42.862;25.098;2023-11-22T11:39:12;11.20;99.90
6462;DHT22;3264;42.862;25.098;2023-11-22T11:41:42;11.30;99.90
6462;DHT22;3264;42.862;25.098;2023-11-22T11:44:11;11.30;99.90
6462;DHT22;3264;42.862;25.098;2023-11-22T11:46:39;11.30;99.90
6462;DHT22;3264;42.862;25.098;2023-11-22T11:49:11;11.30;99.90
6462;DHT22;3264;42.862;25.098;2023-11-22T11:51:43;11.30;99.90
6462;DHT22;3264;42.862;25.098;2023-11-22T11:57:54;11.40;99.90
6462;DHT22;3264;42.862;25.098;2023-11-22T12:00:22;11.40;99.90
6462;DHT22;3264;42.862;25.098;2023-11-22T12:02:52;11.30;99.90
6462;DHT22;3264;42.862;25.098;2023-11-22T12:05:20;11.40;99.90
6462;DHT22;3264;42.862;25.098;2023-11-22T12:07:49;11.30;99.90
6462;DHT22;3264;42.862;25.098;2023-11-22T12:10:17;11.30;99.90
6462;DHT22;3264;42.862;25.098;2023-11-22T12:12:45;11.40;99.90
6462;DHT22;3264;42.862;25.098;2023-11-22T12:15:13;11.40;99.90
6462;DHT22;3264;42.862;25.098;2023-11-22T12:17:41;11.30;99.90
6462;DHT22;3264;42.862;25.098;2023-11-22T12:20:11;11.40;99.90
6462;DHT22;3264;42.862;25.098;2023-11-22T12:22:40;11.40;99.90
6462;DHT22;3264;42.862;25.098;2023-11-22T12:25:11;11.40;99.90
6462;DHT22;3264;42.862;25.098;2023-11-22T12:27:41;11.30;99.90
6462;DHT22;3264;42.862;25.098;2023-11-22T12:30:09;11.40;99.90
6462;DHT22;3264;42.862;25.098;2023-11-22T12:32:42;11.40;99.90
6462;DHT22;3264;42.862;25.098;2023-11-22T12:35:10;11.30;99.90
6462;DHT22;3264;42.862;25.098;2023-11-22T12:37:39;11.30;99.90
6462;DHT22;3264;42.862;25.098;2023-11-22T12:40:11;11.30;99.90
6462;DHT22;3264;42.862;25.098;2023-11-22T12:42:48;11.50;99.90
6462;DHT22;3264;42.862;25.098;2023-11-22T12:45:20;11.50;99.90
6462;DHT22;3264;42.862;25.098;2023-11-22T12:47:50;11.50;99.90
6462;DHT22;3264;42.862;25.098;2023-11-22T12:50:32;11.60;99.90
6462;DHT22;3264;42.862;25.098;2023-11-22T12:53:08;11.50;99.90
6462;DHT22;3264;42.862;25.098;2023-11-22T12:55:42;11.50;99.90
6462;DHT22;3264;42.862;25.098;2023-11-22T12:58:12;11.50;99.90
6462;DHT22;3264;42.862;25.098;2023-11-22T13:00:41;11.60;99.90
6462;DHT22;3264;42.862;25.098;2023-11-22T13:03:10;11.60;99.90
6462;DHT22;3264;42.862;25.098;2023-11-22T13:05:39;11.60;99.90
6462;DHT22;3264;42.862;25.098;2023-11-22T13:08:09;11.60;99.90
6462;DHT22;3264;42.862;25.098;2023-11-22T13:10:44;11.60;99.90
6462;DHT22;3264;42.862;25.098;2023-11-22T13:13:13;11.50;99.90
6462;DHT22;3264;42.862;25.098;2023-11-22T13:15:42;11.40;99.90
6462;DHT22;3264;42.862;25.098;2023-11-22T13:18:11;11.40;99.90
6462;DHT22;3264;42.862;25.098;2023-11-22T13:20:40;11.30;99.90
6462;DHT22;3264;42.862;25.098;2023-11-22T13:23:09;11.30;99.90
6462;DHT22;3264;42.862;25.098;2023-11-22T13:25:38;11.20;99.90
6462;DHT22;3264;42.862;25.098;2023-11-22T13:28:09;11.10;99.90
6462;DHT22;3264;42.862;25.098;2023-11-22T13:30:38;11.10;99.90
6462;DHT22;3264;42.862;25.098;2023-11-22T13:33:05;11.10;99.90
6462;DHT22;3264;42.862;25.098;2023-11-22T13:35:34;11.10;99.90
6462;DHT22;3264;42.862;25.098;2023-11-22T13:38:05;11.00;99.90
6462;DHT22;3264;42.862;25.098;2023-11-22T13:40:38;11.00;99.90
6462;DHT22;3264;42.862;25.098;2023-11-22T13:43:06;11.00;99.90
6462;DHT22;3264;42.862;25.098;2023-11-22T13:45:37;11.00;99.90
6462;DHT22;3264;42.862;25.098;2023-11-22T13:48:08;11.10;99.90
6462;DHT22;3264;42.862;25.098;2023-11-22T13:50:38;11.10;99.90
6462;DHT22;3264;42.862;25.098;2023-11-22T13:53:05;11.10;99.90
6462;DHT22;3264;42.862;25.098;2023-11-22T13:55:36;11.10;99.90
6462;DHT22;3264;42.862;25.098;2023-11-22T13:58:05;11.10;99.90
6462;DHT22;3264;42.862;25.098;2023-11-22T14:00:37;11.00;99.90
6462;DHT22;3264;42.862;25.098;2023-11-22T14:03:05;11.00;99.90
6462;DHT22;3264;42.862;25.098;2023-11-22T14:05:35;11.00;99.90
6462;DHT22;3264;42.862;25.098;2023-11-22T14:08:04;11.00;99.90
6462;DHT22;3264;42.862;25.098;2023-11-22T14:10:33;11.00;99.90
6462;DHT22;3264;42.862;25.098;2023-11-22T14:13:01;11.00;99.90
6462;DHT22;3264;42.862;25.098;2023-11-22T14:15:31;10.90;99.90
6462;DHT22;3264;42.862;25.098;2023-11-22T14:18:02;10.90;99.90
6462;DHT22;3264;42.862;25.098;2023-11-22T14:20:30;10.90;99.90
6462;DHT22;3264;42.862;25.098;2023-11-22T14:23:01;10.90;99.90
6462;DHT22;3264;42.862;25.098;2023-11-22T14:25:30;10.90;99.90
6462;DHT22;3264;42.862;25.098;2023-11-22T14:27:58;10.90;99.90
6462;DHT22;3264;42.862;25.098;2023-11-22T14:30:27;10.90;99.90
6462;DHT22;3264;42.862;25.098;2023-11-22T14:32:57;10.90;99.90
6462;DHT22;3264;42.862;25.098;2023-11-22T14:35:28;10.90;99.90
6462;DHT22;3264;42.862;25.098;2023-11-22T14:37:56;10.90;99.90
6462;DHT22;3264;42.862;25.098;2023-11-22T14:40:27;10.90;99.90
6462;DHT22;3264;42.862;25.098;2023-11-22T14:42:58;10.80;99.90
6462;DHT22;3264;42.862;25.098;2023-11-22T14:45:27;10.80;99.90
6462;DHT22;3264;42.862;25.098;2023-11-22T14:47:56;10.70;99.90
6462;DHT22;3264;42.862;25.098;2023-11-22T14:50:24;10.80;99.90
6462;DHT22;3264;42.862;25.098;2023-11-22T14:52:56;10.70;99.90
6462;DHT22;3264;42.862;25.098;2023-11-22T14:55:24;10.60;99.90
6462;DHT22;3264;42.862;25.098;2023-11-22T14:57:52;10.60;99.90
6462;DHT22;3264;42.862;25.098;2023-11-22T15:00:24;10.50;99.90
6462;DHT22;3264;42.862;25.098;2023-11-22T15:02:52;10.50;99.90
6462;DHT22;3264;42.862;25.098;2023-11-22T15:05:22;10.50;99.90
6462;DHT22;3264;42.862;25.098;2023-11-22T15:07:50;10.50;99.90
6462;DHT22;3264;42.862;25.098;2023-11-22T15:10:22;10.50;99.90
6462;DHT22;3264;42.862;25.098;2023-11-22T15:12:52;10.60;99.90
6462;DHT22;3264;42.862;25.098;2023-11-22T15:15:19;10.50;99.90
6462;DHT22;3264;42.862;25.098;2023-11-22T15:17:51;10.50;99.90
6462;DHT22;3264;42.862;25.098;2023-11-22T15:20:19;10.60;99.90
6462;DHT22;3264;42.862;25.098;2023-11-22T15:22:47;10.60;99.90
6462;DHT22;3264;42.862;25.098;2023-11-22T15:25:16;10.60;99.90
6462;DHT22;3264;42.862;25.098;2023-11-22T15:27:46;10.60;99.90
6462;DHT22;3264;42.862;25.098;2023-11-22T15:30:13;10.70;99.90
6462;DHT22;3264;42.862;25.098;2023-11-22T15:32:43;10.70;99.90
6462;DHT22;3264;42.862;25.098;2023-11-22T15:35:11;10.70;99.90
6462;DHT22;3264;42.862;25.098;2023-11-22T15:37:40;10.60;99.90
6462;DHT22;3264;42.862;25.098;2023-11-22T15:40:09;10.60;99.90
6462;DHT22;3264;42.862;25.098;2023-11-22T15:42:39;10.60;99.90
6462;DHT22;3264;42.862;25.098;2023-11-22T15:45:10;10.60;99.90
6462;DHT22;3264;42.862;25.098;2023-11-22T15:47:39;10.60;99.90
6462;DHT22;3264;42.862;25.098;2023-11-22T15:50:08;10.70;99.90
6462;DHT22;3264;42.862;25.098;2023-11-22T15:52:37;10.70;99.90
6462;DHT22;3264;42.862;25.098;2023-11-22T15:55:06;10.80;99.90
6462;DHT22;3264;42.862;25.098;2023-11-22T15:57:36;10.70;99.90
6462;DHT22;3264;42.862;25.098;2023-11-22T16:00:05;10.70;99.90
6462;DHT22;3264;42.862;25.098;2023-11-22T16:02:38;10.70;99.90
6462;DHT22;3264;42.862;25.098;2023-11-22T16:05:08;10.70;99.90
6462;DHT22;3264;42.862;25.098;2023-11-22T16:07:36;10.60;99.90
6462;DHT22;3264;42.862;25.098;2023-11-22T16:10:05;10.60;99.90
6462;DHT22;3264;42.862;25.098;2023-11-22T16:12:35;10.70;99.90
6462;DHT22;3264;42.862;25.098;2023-11-22T16:15:04;10.70;99.90
6462;DHT22;3264;42.862;25.098;2023-11-22T16:17:33;10.70;99.90
6462;DHT22;3264;42.862;25.098;2023-11-22T16:20:05;10.70;99.90
6462;DHT22;3264;42.862;25.098;2023-11-22T16:22:37;10.70;99.90